sensor_id;sensor_type;location;lat;lon;timestamp;P1;durP1;ratioP1;P2;durP2;ratioP2
76284;SDS011;71676;50.998;7.098;2024-03-25T00:00:30;12.13;;;3.20;;
76284;SDS011;71676;50.998;7.098;2024-03-25T00:02:56;14.02;;;2.97;;
76284;SDS011;71676;50.998;7.098;2024-03-25T00:05:23;10.02;;;2.92;;
76284;SDS011;71676;50.998;7.098;2024-03-25T00:07:50;12.52;;;2.72;;
76284;SDS011;71676;50.998;7.098;2024-03-25T00:10:18;14.10;;;2.70;;
76284;SDS011;71676;50.998;7.098;2024-03-25T00:12:46;10.32;;;2.65;;
76284;SDS011;71676;50.998;7.098;2024-03-25T00:15:14;10.65;;;2.95;;
76284;SDS011;71676;50.998;7.098;2024-03-25T00:17:40;11.90;;;2.25;;
76284;SDS011;71676;50.998;7.098;2024-03-25T00:20:07;8.15;;;2.15;;
76284;SDS011;71676;50.998;7.098;2024-03-25T00:22:34;9.82;;;2.70;;
76284;SDS011;71676;50.998;7.098;2024-03-25T00:25:01;12.93;;;2.83;;
76284;SDS011;71676;50.998;7.098;2024-03-25T00:27:27;12.80;;;2.63;;
76284;SDS011;71676;50.998;7.098;2024-03-25T00:29:55;16.38;;;2.67;;
76284;SDS011;71676;50.998;7.098;2024-03-25T00:32:22;10.57;;;2.25;;
76284;SDS011;71676;50.998;7.098;2024-03-25T00:34:48;9.32;;;2.00;;
76284;SDS011;71676;50.998;7.098;2024-03-25T00:37:14;11.70;;;2.30;;
76284;SDS011;71676;50.998;7.098;2024-03-25T00:39:41;8.85;;;2.28;;
76284;SDS011;71676;50.998;7.098;2024-03-25T00:42:06;9.70;;;2.38;;
76284;SDS011;71676;50.998;7.098;2024-03-25T00:44:33;13.52;;;3.28;;
76284;SDS011;71676;50.998;7.098;2024-03-25T00:46:59;9.65;;;2.53;;
76284;SDS011;71676;50.998;7.098;2024-03-25T00:49:27;9.90;;;2.67;;
76284;SDS011;71676;50.998;7.098;2024-03-25T00:51:52;11.30;;;3.40;;
76284;SDS011;71676;50.998;7.098;2024-03-25T00:54:19;10.13;;;2.90;;
76284;SDS011;71676;50.998;7.098;2024-03-25T00:56:45;11.68;;;3.13;;
76284;SDS011;71676;50.998;7.098;2024-03-25T00:59:12;15.40;;;3.40;;
76284;SDS011;71676;50.998;7.098;2024-03-25T01:01:37;12.15;;;3.50;;
76284;SDS011;71676;50.998;7.098;2024-03-25T01:04:04;12.00;;;4.10;;
76284;SDS011;71676;50.998;7.098;2024-03-25T01:06:31;8.25;;;2.50;;
76284;SDS011;71676;50.998;7.098;2024-03-25T01:08:58;14.63;;;3.33;;
76284;SDS011;71676;50.998;7.098;2024-03-25T01:11:24;11.20;;;2.88;;
76284;SDS011;71676;50.998;7.098;2024-03-25T01:13:50;12.07;;;2.95;;
76284;SDS011;71676;50.998;7.098;2024-03-25T01:16:16;13.63;;;3.55;;
76284;SDS011;71676;50.998;7.098;2024-03-25T01:18:43;14.57;;;3.08;;
76284;SDS011;71676;50.998;7.098;2024-03-25T01:21:08;17.08;;;3.47;;
76284;SDS011;71676;50.998;7.098;2024-03-25T01:23:36;8.43;;;2.78;;
76284;SDS011;71676;50.998;7.098;2024-03-25T01:26:02;10.00;;;3.03;;
76284;SDS011;71676;50.998;7.098;2024-03-25T01:28:29;10.00;;;3.22;;
76284;SDS011;71676;50.998;7.098;2024-03-25T01:30:55;11.82;;;3.38;;
76284;SDS011;71676;50.998;7.098;2024-03-25T01:33:21;11.52;;;2.97;;
76284;SDS011;71676;50.998;7.098;2024-03-25T01:35:47;14.18;;;3.40;;
76284;SDS011;71676;50.998;7.098;2024-03-25T01:38:14;13.60;;;3.67;;
76284;SDS011;71676;50.998;7.098;2024-03-25T01:40:41;13.35;;;3.58;;
76284;SDS011;71676;50.998;7.098;2024-03-25T01:43:07;10.60;;;3.00;;
76284;SDS011;71676;50.998;7.098;2024-03-25T01:45:33;12.18;;;3.25;;
76284;SDS011;71676;50.998;7.098;2024-03-25T01:48:02;14.35;;;3.47;;
76284;SDS011;71676;50.998;7.098;2024-03-25T01:50:30;17.83;;;3.17;;
76284;SDS011;71676;50.998;7.098;2024-03-25T01:52:59;11.63;;;3.17;;
76284;SDS011;71676;50.998;7.098;2024-03-25T01:55:25;14.38;;;3.65;;
76284;SDS011;71676;50.998;7.098;2024-03-25T01:57:55;21.27;;;3.42;;
76284;SDS011;71676;50.998;7.098;2024-03-25T02:00:21;13.77;;;3.25;;
76284;SDS011;71676;50.998;7.098;2024-03-25T02:02:50;12.10;;;2.58;;
76284;SDS011;71676;50.998;7.098;2024-03-25T02:07:43;10.70;;;2.80;;
76284;SDS011;71676;50.998;7.098;2024-03-25T02:10:10;27.80;;;3.20;;
76284;SDS011;71676;50.998;7.098;2024-03-25T02:12:40;13.73;;;4.40;;
76284;SDS011;71676;50.998;7.098;2024-03-25T02:15:08;15.15;;;3.13;;
76284;SDS011;71676;50.998;7.098;2024-03-25T02:17:35;10.60;;;3.03;;
76284;SDS011;71676;50.998;7.098;2024-03-25T02:20:01;8.77;;;2.67;;
76284;SDS011;71676;50.998;7.098;2024-03-25T02:22:30;10.45;;;3.33;;
76284;SDS011;71676;50.998;7.098;2024-03-25T02:24:56;9.93;;;2.70;;
76284;SDS011;71676;50.998;7.098;2024-03-25T02:27:25;10.85;;;2.97;;
76284;SDS011;71676;50.998;7.098;2024-03-25T02:29:53;14.90;;;3.00;;
76284;SDS011;71676;50.998;7.098;2024-03-25T02:32:20;11.05;;;2.75;;
76284;SDS011;71676;50.998;7.098;2024-03-25T02:34:46;10.23;;;2.50;;
76284;SDS011;71676;50.998;7.098;2024-03-25T02:37:14;10.02;;;2.03;;
76284;SDS011;71676;50.998;7.098;2024-03-25T02:42:07;13.70;;;3.20;;
76284;SDS011;71676;50.998;7.098;2024-03-25T02:44:34;13.18;;;3.20;;
76284;SDS011;71676;50.998;7.098;2024-03-25T02:47:01;11.63;;;3.08;;
76284;SDS011;71676;50.998;7.098;2024-03-25T02:49:27;13.23;;;3.03;;
76284;SDS011;71676;50.998;7.098;2024-03-25T02:51:54;15.55;;;3.55;;
76284;SDS011;71676;50.998;7.098;2024-03-25T02:54:20;11.88;;;2.70;;
76284;SDS011;71676;50.998;7.098;2024-03-25T02:56:46;11.48;;;2.50;;
76284;SDS011;71676;50.998;7.098;2024-03-25T02:59:12;10.95;;;2.95;;
76284;SDS011;71676;50.998;7.098;2024-03-25T03:01:40;11.02;;;2.40;;
76284;SDS011;71676;50.998;7.098;2024-03-25T03:04:05;14.48;;;3.17;;
76284;SDS011;71676;50.998;7.098;2024-03-25T03:06:32;12.40;;;2.63;;
76284;SDS011;71676;50.998;7.098;2024-03-25T03:08:57;10.80;;;2.50;;
76284;SDS011;71676;50.998;7.098;2024-03-25T03:11:24;11.27;;;2.13;;
76284;SDS011;71676;50.998;7.098;2024-03-25T03:13:50;12.63;;;2.72;;
76284;SDS011;71676;50.998;7.098;2024-03-25T03:16:16;13.98;;;2.92;;
76284;SDS011;71676;50.998;7.098;2024-03-25T03:18:43;12.52;;;2.40;;
76284;SDS011;71676;50.998;7.098;2024-03-25T03:21:10;12.63;;;2.40;;
76284;SDS011;71676;50.998;7.098;2024-03-25T03:23:35;12.35;;;3.00;;
76284;SDS011;71676;50.998;7.098;2024-03-25T03:26:02;12.00;;;2.60;;
76284;SDS011;71676;50.998;7.098;2024-03-25T03:28:28;12.13;;;2.85;;
76284;SDS011;71676;50.998;7.098;2024-03-25T03:30:54;8.43;;;2.58;;
76284;SDS011;71676;50.998;7.098;2024-03-25T03:33:20;10.75;;;2.40;;
76284;SDS011;71676;50.998;7.098;2024-03-25T03:35:49;11.77;;;2.75;;
76284;SDS011;71676;50.998;7.098;2024-03-25T03:38:15;10.15;;;2.67;;
76284;SDS011;71676;50.998;7.098;2024-03-25T03:40:41;9.32;;;2.17;;
76284;SDS011;71676;50.998;7.098;2024-03-25T03:43:07;10.75;;;2.45;;
76284;SDS011;71676;50.998;7.098;2024-03-25T03:45:33;14.48;;;2.92;;
76284;SDS011;71676;50.998;7.098;2024-03-25T03:47:59;13.23;;;2.47;;
76284;SDS011;71676;50.998;7.098;2024-03-25T03:50:26;10.52;;;2.42;;
76284;SDS011;71676;50.998;7.098;2024-03-25T03:52:53;17.05;;;2.92;;
76284;SDS011;71676;50.998;7.098;2024-03-25T03:55:19;12.20;;;2.72;;
76284;SDS011;71676;50.998;7.098;2024-03-25T03:57:45;13.73;;;2.45;;
76284;SDS011;71676;50.998;7.098;2024-03-25T04:00:12;9.82;;;2.78;;
76284;SDS011;71676;50.998;7.098;2024-03-25T04:02:39;12.00;;;2.88;;
76284;SDS011;71676;50.998;7.098;2024-03-25T04:05:05;12.48;;;2.80;;
76284;SDS011;71676;50.998;7.098;2024-03-25T04:09:59;12.90;;;2.85;;
76284;SDS011;71676;50.998;7.098;2024-03-25T04:12:25;14.93;;;2.35;;
76284;SDS011;71676;50.998;7.098;2024-03-25T04:14:51;17.17;;;2.97;;
76284;SDS011;71676;50.998;7.098;2024-03-25T04:17:20;9.27;;;2.25;;
76284;SDS011;71676;50.998;7.098;2024-03-25T04:19:47;8.77;;;2.15;;
76284;SDS011;71676;50.998;7.098;2024-03-25T04:22:13;12.93;;;2.70;;
76284;SDS011;71676;50.998;7.098;2024-03-25T04:24:40;13.75;;;2.67;;
76284;SDS011;71676;50.998;7.098;2024-03-25T04:27:07;13.38;;;2.92;;
76284;SDS011;71676;50.998;7.098;2024-03-25T04:29:47;15.80;;;3.60;;
76284;SDS011;71676;50.998;7.098;2024-03-25T04:32:13;10.90;;;2.50;;
76284;SDS011;71676;50.998;7.098;2024-03-25T04:34:39;16.55;;;3.20;;
76284;SDS011;71676;50.998;7.098;2024-03-25T04:37:05;12.48;;;2.75;;
76284;SDS011;71676;50.998;7.098;2024-03-25T04:39:31;14.23;;;3.20;;
76284;SDS011;71676;50.998;7.098;2024-03-25T04:41:57;10.93;;;2.83;;
76284;SDS011;71676;50.998;7.098;2024-03-25T04:44:23;13.77;;;3.35;;
76284;SDS011;71676;50.998;7.098;2024-03-25T04:46:50;17.15;;;3.17;;
76284;SDS011;71676;50.998;7.098;2024-03-25T04:49:15;13.55;;;3.13;;
76284;SDS011;71676;50.998;7.098;2024-03-25T04:51:41;12.80;;;3.47;;
76284;SDS011;71676;50.998;7.098;2024-03-25T04:54:06;12.48;;;2.67;;
76284;SDS011;71676;50.998;7.098;2024-03-25T04:56:32;12.68;;;3.78;;
76284;SDS011;71676;50.998;7.098;2024-03-25T04:58:58;12.18;;;3.67;;
76284;SDS011;71676;50.998;7.098;2024-03-25T05:03:51;15.38;;;3.67;;
76284;SDS011;71676;50.998;7.098;2024-03-25T05:06:17;11.38;;;2.88;;
76284;SDS011;71676;50.998;7.098;2024-03-25T05:08:42;11.13;;;2.58;;
76284;SDS011;71676;50.998;7.098;2024-03-25T05:11:08;13.48;;;2.47;;
76284;SDS011;71676;50.998;7.098;2024-03-25T05:13:34;10.98;;;2.83;;
76284;SDS011;71676;50.998;7.098;2024-03-25T05:15:59;12.98;;;3.05;;
76284;SDS011;71676;50.998;7.098;2024-03-25T05:18:25;10.93;;;2.45;;
76284;SDS011;71676;50.998;7.098;2024-03-25T05:20:52;9.93;;;3.08;;
76284;SDS011;71676;50.998;7.098;2024-03-25T05:23:18;11.63;;;2.80;;
76284;SDS011;71676;50.998;7.098;2024-03-25T05:25:43;14.07;;;2.40;;
76284;SDS011;71676;50.998;7.098;2024-03-25T05:28:09;12.90;;;3.00;;
76284;SDS011;71676;50.998;7.098;2024-03-25T05:30:35;13.32;;;2.97;;
76284;SDS011;71676;50.998;7.098;2024-03-25T05:33:00;10.40;;;2.90;;
76284;SDS011;71676;50.998;7.098;2024-03-25T05:35:26;10.82;;;2.70;;
76284;SDS011;71676;50.998;7.098;2024-03-25T05:37:53;11.07;;;2.88;;
76284;SDS011;71676;50.998;7.098;2024-03-25T05:40:19;12.13;;;3.15;;
76284;SDS011;71676;50.998;7.098;2024-03-25T05:42:44;11.80;;;2.65;;
76284;SDS011;71676;50.998;7.098;2024-03-25T05:45:10;13.10;;;2.80;;
76284;SDS011;71676;50.998;7.098;2024-03-25T05:47:36;10.85;;;2.88;;
76284;SDS011;71676;50.998;7.098;2024-03-25T05:50:02;9.00;;;3.13;;
76284;SDS011;71676;50.998;7.098;2024-03-25T05:52:28;14.30;;;3.45;;
76284;SDS011;71676;50.998;7.098;2024-03-25T05:54:55;12.93;;;3.30;;
76284;SDS011;71676;50.998;7.098;2024-03-25T05:57:21;17.00;;;3.70;;
76284;SDS011;71676;50.998;7.098;2024-03-25T05:59:46;18.08;;;3.30;;
76284;SDS011;71676;50.998;7.098;2024-03-25T06:02:12;17.35;;;3.78;;
76284;SDS011;71676;50.998;7.098;2024-03-25T06:04:37;12.88;;;2.85;;
76284;SDS011;71676;50.998;7.098;2024-03-25T06:07:03;11.15;;;2.72;;
76284;SDS011;71676;50.998;7.098;2024-03-25T06:09:29;10.27;;;2.80;;
76284;SDS011;71676;50.998;7.098;2024-03-25T06:11:56;10.10;;;2.70;;
76284;SDS011;71676;50.998;7.098;2024-03-25T06:14:21;11.00;;;3.08;;
76284;SDS011;71676;50.998;7.098;2024-03-25T06:16:47;11.32;;;2.90;;
76284;SDS011;71676;50.998;7.098;2024-03-25T06:19:13;10.43;;;3.15;;
76284;SDS011;71676;50.998;7.098;2024-03-25T06:21:38;12.48;;;3.50;;
76284;SDS011;71676;50.998;7.098;2024-03-25T06:24:04;13.35;;;2.90;;
76284;SDS011;71676;50.998;7.098;2024-03-25T06:28:57;15.00;;;4.43;;
76284;SDS011;71676;50.998;7.098;2024-03-25T06:31:23;17.42;;;4.13;;
76284;SDS011;71676;50.998;7.098;2024-03-25T06:34:07;14.57;;;3.60;;
76284;SDS011;71676;50.998;7.098;2024-03-25T06:36:42;12.48;;;3.42;;
76284;SDS011;71676;50.998;7.098;2024-03-25T06:39:08;14.05;;;4.07;;
76284;SDS011;71676;50.998;7.098;2024-03-25T06:41:34;13.35;;;3.70;;
76284;SDS011;71676;50.998;7.098;2024-03-25T06:44:01;11.40;;;3.30;;
76284;SDS011;71676;50.998;7.098;2024-03-25T06:46:27;13.65;;;4.35;;
76284;SDS011;71676;50.998;7.098;2024-03-25T06:48:52;10.20;;;3.40;;
76284;SDS011;71676;50.998;7.098;2024-03-25T06:51:18;13.70;;;4.28;;
76284;SDS011;71676;50.998;7.098;2024-03-25T06:53:44;15.23;;;4.20;;
76284;SDS011;71676;50.998;7.098;2024-03-25T06:56:10;13.48;;;4.10;;
76284;SDS011;71676;50.998;7.098;2024-03-25T06:58:35;14.40;;;4.13;;
76284;SDS011;71676;50.998;7.098;2024-03-25T07:01:05;13.40;;;4.40;;
76284;SDS011;71676;50.998;7.098;2024-03-25T07:03:32;12.60;;;3.47;;
76284;SDS011;71676;50.998;7.098;2024-03-25T07:05:58;17.23;;;3.58;;
76284;SDS011;71676;50.998;7.098;2024-03-25T07:08:25;15.25;;;3.65;;
76284;SDS011;71676;50.998;7.098;2024-03-25T07:13:17;15.18;;;4.18;;
76284;SDS011;71676;50.998;7.098;2024-03-25T07:15:42;11.65;;;3.67;;
76284;SDS011;71676;50.998;7.098;2024-03-25T07:18:10;13.63;;;4.03;;
76284;SDS011;71676;50.998;7.098;2024-03-25T07:20:36;12.27;;;3.30;;
76284;SDS011;71676;50.998;7.098;2024-03-25T07:23:02;10.43;;;3.50;;
76284;SDS011;71676;50.998;7.098;2024-03-25T07:25:28;15.02;;;4.13;;
76284;SDS011;71676;50.998;7.098;2024-03-25T07:27:54;15.25;;;4.63;;
76284;SDS011;71676;50.998;7.098;2024-03-25T07:30:20;13.68;;;3.72;;
76284;SDS011;71676;50.998;7.098;2024-03-25T07:32:46;13.82;;;4.07;;
76284;SDS011;71676;50.998;7.098;2024-03-25T07:35:13;15.13;;;4.47;;
76284;SDS011;71676;50.998;7.098;2024-03-25T07:37:39;12.98;;;3.92;;
76284;SDS011;71676;50.998;7.098;2024-03-25T07:40:05;11.27;;;4.13;;
76284;SDS011;71676;50.998;7.098;2024-03-25T07:42:31;12.18;;;4.70;;
76284;SDS011;71676;50.998;7.098;2024-03-25T07:44:57;12.15;;;4.07;;
76284;SDS011;71676;50.998;7.098;2024-03-25T07:47:23;8.57;;;3.33;;
76284;SDS011;71676;50.998;7.098;2024-03-25T07:49:48;14.63;;;5.15;;
76284;SDS011;71676;50.998;7.098;2024-03-25T07:52:15;11.98;;;3.85;;
76284;SDS011;71676;50.998;7.098;2024-03-25T07:54:41;12.98;;;3.47;;
76284;SDS011;71676;50.998;7.098;2024-03-25T07:57:07;10.00;;;3.47;;
76284;SDS011;71676;50.998;7.098;2024-03-25T07:59:32;11.73;;;3.35;;
76284;SDS011;71676;50.998;7.098;2024-03-25T08:01:58;29.17;;;4.38;;
76284;SDS011;71676;50.998;7.098;2024-03-25T08:04:24;10.80;;;3.50;;
76284;SDS011;71676;50.998;7.098;2024-03-25T08:06:49;7.70;;;2.80;;
76284;SDS011;71676;50.998;7.098;2024-03-25T08:09:16;13.40;;;3.40;;
76284;SDS011;71676;50.998;7.098;2024-03-25T08:11:42;14.38;;;4.05;;
76284;SDS011;71676;50.998;7.098;2024-03-25T08:14:08;13.18;;;4.07;;
76284;SDS011;71676;50.998;7.098;2024-03-25T08:16:34;12.85;;;3.65;;
76284;SDS011;71676;50.998;7.098;2024-03-25T08:19:00;10.43;;;3.55;;
76284;SDS011;71676;50.998;7.098;2024-03-25T08:21:39;12.07;;;3.30;;
76284;SDS011;71676;50.998;7.098;2024-03-25T08:24:05;12.60;;;3.47;;
76284;SDS011;71676;50.998;7.098;2024-03-25T08:26:30;10.88;;;3.20;;
76284;SDS011;71676;50.998;7.098;2024-03-25T08:28:56;11.20;;;3.45;;
76284;SDS011;71676;50.998;7.098;2024-03-25T08:31:22;11.27;;;2.75;;
76284;SDS011;71676;50.998;7.098;2024-03-25T08:33:47;11.35;;;2.72;;
76284;SDS011;71676;50.998;7.098;2024-03-25T08:36:13;10.90;;;2.72;;
76284;SDS011;71676;50.998;7.098;2024-03-25T08:38:40;11.18;;;3.00;;
76284;SDS011;71676;50.998;7.098;2024-03-25T08:41:06;12.63;;;2.50;;
76284;SDS011;71676;50.998;7.098;2024-03-25T08:45:57;10.98;;;2.70;;
76284;SDS011;71676;50.998;7.098;2024-03-25T08:48:23;13.20;;;3.58;;
76284;SDS011;71676;50.998;7.098;2024-03-25T08:53:14;9.02;;;2.42;;
76284;SDS011;71676;50.998;7.098;2024-03-25T08:55:44;11.93;;;2.17;;
76284;SDS011;71676;50.998;7.098;2024-03-25T08:58:11;8.27;;;2.30;;
76284;SDS011;71676;50.998;7.098;2024-03-25T09:00:37;11.40;;;1.75;;
76284;SDS011;71676;50.998;7.098;2024-03-25T09:05:29;11.95;;;1.98;;
76284;SDS011;71676;50.998;7.098;2024-03-25T09:07:54;8.68;;;2.17;;
76284;SDS011;71676;50.998;7.098;2024-03-25T09:10:20;14.23;;;2.83;;
76284;SDS011;71676;50.998;7.098;2024-03-25T09:13:05;9.60;;;2.70;;
76284;SDS011;71676;50.998;7.098;2024-03-25T09:15:31;6.28;;;1.92;;
76284;SDS011;71676;50.998;7.098;2024-03-25T09:20:22;12.68;;;3.38;;
76284;SDS011;71676;50.998;7.098;2024-03-25T09:25:14;9.90;;;2.10;;
76284;SDS011;71676;50.998;7.098;2024-03-25T09:27:40;12.90;;;2.65;;
76284;SDS011;71676;50.998;7.098;2024-03-25T09:32:33;10.35;;;2.53;;
76284;SDS011;71676;50.998;7.098;2024-03-25T09:37:25;8.90;;;1.90;;
76284;SDS011;71676;50.998;7.098;2024-03-25T09:42:22;8.98;;;1.98;;
76284;SDS011;71676;50.998;7.098;2024-03-25T09:44:51;8.25;;;1.95;;
76284;SDS011;71676;50.998;7.098;2024-03-25T09:47:21;7.78;;;1.90;;
76284;SDS011;71676;50.998;7.098;2024-03-25T09:49:47;6.53;;;1.50;;
76284;SDS011;71676;50.998;7.098;2024-03-25T09:52:13;8.20;;;2.05;;
76284;SDS011;71676;50.998;7.098;2024-03-25T09:57:05;8.80;;;1.77;;
76284;SDS011;71676;50.998;7.098;2024-03-25T09:59:31;9.65;;;1.90;;
76284;SDS011;71676;50.998;7.098;2024-03-25T10:04:25;11.05;;;2.20;;
76284;SDS011;71676;50.998;7.098;2024-03-25T10:06:50;9.93;;;2.40;;
76284;SDS011;71676;50.998;7.098;2024-03-25T10:09:18;6.65;;;1.83;;
76284;SDS011;71676;50.998;7.098;2024-03-25T10:11:46;9.15;;;1.88;;
76284;SDS011;71676;50.998;7.098;2024-03-25T10:14:12;12.32;;;2.70;;
76284;SDS011;71676;50.998;7.098;2024-03-25T10:16:38;7.15;;;2.17;;
76284;SDS011;71676;50.998;7.098;2024-03-25T10:19:04;10.95;;;2.00;;
76284;SDS011;71676;50.998;7.098;2024-03-25T10:21:31;9.60;;;2.30;;
76284;SDS011;71676;50.998;7.098;2024-03-25T10:23:56;9.73;;;2.40;;
76284;SDS011;71676;50.998;7.098;2024-03-25T10:26:25;7.72;;;2.05;;
76284;SDS011;71676;50.998;7.098;2024-03-25T10:28:59;7.40;;;2.25;;
76284;SDS011;71676;50.998;7.098;2024-03-25T10:31:25;9.10;;;1.67;;
76284;SDS011;71676;50.998;7.098;2024-03-25T10:33:51;6.80;;;1.92;;
76284;SDS011;71676;50.998;7.098;2024-03-25T10:36:17;7.30;;;2.20;;
76284;SDS011;71676;50.998;7.098;2024-03-25T10:38:46;8.32;;;1.88;;
76284;SDS011;71676;50.998;7.098;2024-03-25T10:41:16;6.40;;;1.88;;
76284;SDS011;71676;50.998;7.098;2024-03-25T10:43:43;7.95;;;2.00;;
76284;SDS011;71676;50.998;7.098;2024-03-25T10:46:11;7.50;;;1.60;;
76284;SDS011;71676;50.998;7.098;2024-03-25T10:48:41;8.10;;;2.25;;
76284;SDS011;71676;50.998;7.098;2024-03-25T10:51:12;9.77;;;1.98;;
76284;SDS011;71676;50.998;7.098;2024-03-25T10:56:05;6.28;;;1.58;;
76284;SDS011;71676;50.998;7.098;2024-03-25T10:58:32;7.13;;;1.63;;
76284;SDS011;71676;50.998;7.098;2024-03-25T11:00:58;10.00;;;1.92;;
76284;SDS011;71676;50.998;7.098;2024-03-25T11:03:26;7.00;;;2.00;;
76284;SDS011;71676;50.998;7.098;2024-03-25T11:05:52;7.50;;;1.83;;
76284;SDS011;71676;50.998;7.098;2024-03-25T11:08:18;8.88;;;1.73;;
76284;SDS011;71676;50.998;7.098;2024-03-25T11:10:44;10.57;;;2.00;;
76284;SDS011;71676;50.998;7.098;2024-03-25T11:13:12;7.75;;;1.80;;
76284;SDS011;71676;50.998;7.098;2024-03-25T11:15:40;7.40;;;2.03;;
76284;SDS011;71676;50.998;7.098;2024-03-25T11:18:10;9.05;;;1.90;;
76284;SDS011;71676;50.998;7.098;2024-03-25T11:20:37;6.13;;;1.75;;
76284;SDS011;71676;50.998;7.098;2024-03-25T11:23:07;5.97;;;1.58;;
76284;SDS011;71676;50.998;7.098;2024-03-25T11:25:34;8.23;;;2.00;;
76284;SDS011;71676;50.998;7.098;2024-03-25T11:28:00;7.10;;;1.70;;
76284;SDS011;71676;50.998;7.098;2024-03-25T11:30:27;6.55;;;1.92;;
76284;SDS011;71676;50.998;7.098;2024-03-25T11:32:53;5.78;;;1.50;;
76284;SDS011;71676;50.998;7.098;2024-03-25T11:35:20;8.68;;;2.03;;
76284;SDS011;71676;50.998;7.098;2024-03-25T11:37:46;5.80;;;1.45;;
76284;SDS011;71676;50.998;7.098;2024-03-25T11:40:12;6.07;;;1.75;;
76284;SDS011;71676;50.998;7.098;2024-03-25T11:42:39;7.00;;;1.40;;
76284;SDS011;71676;50.998;7.098;2024-03-25T11:45:06;4.88;;;1.60;;
76284;SDS011;71676;50.998;7.098;2024-03-25T11:47:34;5.35;;;1.55;;
76284;SDS011;71676;50.998;7.098;2024-03-25T11:49:59;6.22;;;1.67;;
76284;SDS011;71676;50.998;7.098;2024-03-25T11:52:29;5.15;;;1.30;;
76284;SDS011;71676;50.998;7.098;2024-03-25T11:54:55;5.15;;;1.60;;
76284;SDS011;71676;50.998;7.098;2024-03-25T11:57:21;8.18;;;1.95;;
76284;SDS011;71676;50.998;7.098;2024-03-25T11:59:47;7.55;;;1.92;;
76284;SDS011;71676;50.998;7.098;2024-03-25T12:02:13;9.45;;;2.22;;
76284;SDS011;71676;50.998;7.098;2024-03-25T12:04:43;6.70;;;1.75;;
76284;SDS011;71676;50.998;7.098;2024-03-25T12:07:10;4.60;;;1.40;;
76284;SDS011;71676;50.998;7.098;2024-03-25T12:09:37;3.17;;;1.23;;
76284;SDS011;71676;50.998;7.098;2024-03-25T12:12:21;6.53;;;1.30;;
76284;SDS011;71676;50.998;7.098;2024-03-25T12:14:46;4.68;;;1.23;;
76284;SDS011;71676;50.998;7.098;2024-03-25T12:17:12;6.78;;;1.52;;
76284;SDS011;71676;50.998;7.098;2024-03-25T12:19:38;5.63;;;1.30;;
76284;SDS011;71676;50.998;7.098;2024-03-25T12:22:05;4.78;;;1.30;;
76284;SDS011;71676;50.998;7.098;2024-03-25T12:24:31;3.25;;;1.20;;
76284;SDS011;71676;50.998;7.098;2024-03-25T12:26:57;7.30;;;1.35;;
76284;SDS011;71676;50.998;7.098;2024-03-25T12:29:23;7.88;;;1.50;;
76284;SDS011;71676;50.998;7.098;2024-03-25T12:31:53;6.00;;;1.63;;
76284;SDS011;71676;50.998;7.098;2024-03-25T12:34:19;7.80;;;1.48;;
76284;SDS011;71676;50.998;7.098;2024-03-25T12:36:45;6.68;;;1.48;;
76284;SDS011;71676;50.998;7.098;2024-03-25T12:39:16;3.78;;;1.30;;
76284;SDS011;71676;50.998;7.098;2024-03-25T12:41:42;5.97;;;1.60;;
76284;SDS011;71676;50.998;7.098;2024-03-25T12:44:08;7.00;;;1.45;;
76284;SDS011;71676;50.998;7.098;2024-03-25T12:46:34;7.78;;;1.55;;
76284;SDS011;71676;50.998;7.098;2024-03-25T12:49:00;4.32;;;1.48;;
76284;SDS011;71676;50.998;7.098;2024-03-25T12:51:26;6.35;;;1.40;;
76284;SDS011;71676;50.998;7.098;2024-03-25T12:53:51;4.40;;;1.30;;
76284;SDS011;71676;50.998;7.098;2024-03-25T12:56:18;6.70;;;1.30;;
76284;SDS011;71676;50.998;7.098;2024-03-25T12:58:44;5.60;;;1.23;;
76284;SDS011;71676;50.998;7.098;2024-03-25T13:01:10;7.78;;;1.67;;
76284;SDS011;71676;50.998;7.098;2024-03-25T13:03:36;6.35;;;1.50;;
76284;SDS011;71676;50.998;7.098;2024-03-25T13:06:01;7.70;;;1.48;;
76284;SDS011;71676;50.998;7.098;2024-03-25T13:08:27;5.22;;;1.60;;
76284;SDS011;71676;50.998;7.098;2024-03-25T13:10:53;5.45;;;1.58;;
76284;SDS011;71676;50.998;7.098;2024-03-25T13:13:20;5.88;;;1.60;;
76284;SDS011;71676;50.998;7.098;2024-03-25T13:15:46;6.20;;;1.95;;
76284;SDS011;71676;50.998;7.098;2024-03-25T13:18:12;5.05;;;1.42;;
76284;SDS011;71676;50.998;7.098;2024-03-25T13:20:37;7.90;;;1.67;;
76284;SDS011;71676;50.998;7.098;2024-03-25T13:23:03;5.82;;;1.77;;
76284;SDS011;71676;50.998;7.098;2024-03-25T13:25:29;3.47;;;1.50;;
76284;SDS011;71676;50.998;7.098;2024-03-25T13:27:55;5.88;;;1.40;;
76284;SDS011;71676;50.998;7.098;2024-03-25T13:30:22;7.63;;;1.60;;
76284;SDS011;71676;50.998;7.098;2024-03-25T13:32:48;5.80;;;1.42;;
76284;SDS011;71676;50.998;7.098;2024-03-25T13:35:13;4.90;;;1.38;;
76284;SDS011;71676;50.998;7.098;2024-03-25T13:37:39;4.35;;;1.23;;
76284;SDS011;71676;50.998;7.098;2024-03-25T13:40:05;5.70;;;1.40;;
76284;SDS011;71676;50.998;7.098;2024-03-25T13:42:32;4.60;;;1.50;;
76284;SDS011;71676;50.998;7.098;2024-03-25T13:44:57;7.22;;;1.60;;
76284;SDS011;71676;50.998;7.098;2024-03-25T13:47:24;4.93;;;1.30;;
76284;SDS011;71676;50.998;7.098;2024-03-25T13:49:59;4.47;;;1.30;;
76284;SDS011;71676;50.998;7.098;2024-03-25T13:52:25;5.43;;;1.40;;
76284;SDS011;71676;50.998;7.098;2024-03-25T13:54:51;5.03;;;1.40;;
76284;SDS011;71676;50.998;7.098;2024-03-25T13:57:17;3.63;;;1.35;;
76284;SDS011;71676;50.998;7.098;2024-03-25T13:59:42;4.35;;;1.27;;
76284;SDS011;71676;50.998;7.098;2024-03-25T14:02:08;4.18;;;1.10;;
76284;SDS011;71676;50.998;7.098;2024-03-25T14:04:35;8.35;;;2.00;;
76284;SDS011;71676;50.998;7.098;2024-03-25T14:07:01;4.50;;;1.50;;
76284;SDS011;71676;50.998;7.098;2024-03-25T14:09:27;3.60;;;1.35;;
76284;SDS011;71676;50.998;7.098;2024-03-25T14:11:53;4.75;;;1.40;;
76284;SDS011;71676;50.998;7.098;2024-03-25T14:14:19;4.97;;;1.30;;
76284;SDS011;71676;50.998;7.098;2024-03-25T14:16:44;5.13;;;1.33;;
76284;SDS011;71676;50.998;7.098;2024-03-25T14:19:10;4.30;;;1.20;;
76284;SDS011;71676;50.998;7.098;2024-03-25T14:21:37;2.30;;;1.02;;
76284;SDS011;71676;50.998;7.098;2024-03-25T14:24:04;6.13;;;1.40;;
76284;SDS011;71676;50.998;7.098;2024-03-25T14:26:30;3.78;;;1.20;;
76284;SDS011;71676;50.998;7.098;2024-03-25T14:28:56;3.42;;;1.10;;
76284;SDS011;71676;50.998;7.098;2024-03-25T14:31:21;4.93;;;1.20;;
76284;SDS011;71676;50.998;7.098;2024-03-25T14:33:47;5.57;;;1.63;;
76284;SDS011;71676;50.998;7.098;2024-03-25T14:36:13;4.25;;;1.40;;
76284;SDS011;71676;50.998;7.098;2024-03-25T14:38:40;4.85;;;1.25;;
76284;SDS011;71676;50.998;7.098;2024-03-25T14:41:05;5.20;;;1.40;;
76284;SDS011;71676;50.998;7.098;2024-03-25T14:43:31;4.70;;;1.30;;
76284;SDS011;71676;50.998;7.098;2024-03-25T14:45:57;6.13;;;1.40;;
76284;SDS011;71676;50.998;7.098;2024-03-25T14:48:23;5.47;;;1.40;;
76284;SDS011;71676;50.998;7.098;2024-03-25T14:50:48;5.72;;;1.40;;
76284;SDS011;71676;50.998;7.098;2024-03-25T14:53:14;5.95;;;1.60;;
76284;SDS011;71676;50.998;7.098;2024-03-25T14:58:08;6.50;;;1.50;;
76284;SDS011;71676;50.998;7.098;2024-03-25T15:00:34;4.65;;;1.27;;
76284;SDS011;71676;50.998;7.098;2024-03-25T15:03:00;4.25;;;1.30;;
76284;SDS011;71676;50.998;7.098;2024-03-25T15:05:26;5.63;;;1.52;;
76284;SDS011;71676;50.998;7.098;2024-03-25T15:07:51;7.53;;;1.30;;
76284;SDS011;71676;50.998;7.098;2024-03-25T15:10:17;4.47;;;1.50;;
76284;SDS011;71676;50.998;7.098;2024-03-25T15:12:43;5.38;;;1.23;;
76284;SDS011;71676;50.998;7.098;2024-03-25T15:15:12;9.25;;;2.63;;
76284;SDS011;71676;50.998;7.098;2024-03-25T15:17:38;6.60;;;2.05;;
76284;SDS011;71676;50.998;7.098;2024-03-25T15:20:04;4.72;;;1.60;;